createdAt,value
2022-09-29T00:03:31.869Z,12.67
2022-09-29T00:08:34.273Z,12.10
2022-09-29T00:13:36.796Z,14.17
2022-09-29T00:18:39.424Z,14.73
2022-09-29T00:23:41.965Z,14.20
2022-09-29T00:28:59.225Z,14.80
2022-09-29T00:34:01.651Z,14.30
2022-09-29T00:39:04.412Z,13.80
2022-09-29T00:44:06.684Z,14.50
2022-09-29T00:49:15.546Z,14.60
2022-09-29T00:54:18.538Z,14.50
2022-09-29T00:59:31.767Z,15.23
2022-09-29T01:04:34.318Z,14.57
2022-09-29T01:09:39.160Z,14.37
2022-09-29T01:14:41.568Z,15.00
2022-09-29T01:19:51.539Z,14.10
2022-09-29T01:25:03.290Z,16.37
2022-09-29T01:30:36.673Z,16.40
2022-09-29T01:35:51.181Z,16.17
2022-09-29T01:41:17.985Z,14.63
2022-09-29T01:46:29.724Z,14.63
2022-09-29T01:51:44.020Z,13.33
2022-09-29T01:57:04.849Z,14.63
2022-09-29T02:02:12.383Z,13.00
2022-09-29T02:07:25.456Z,16.13
2022-09-29T02:12:30.621Z,13.10
2022-09-29T02:17:43.447Z,14.07
2022-09-29T02:22:46.908Z,13.27
2022-09-29T02:27:50.940Z,12.87
2022-09-29T02:32:53.524Z,12.70
2022-09-29T02:38:12.288Z,13.83
2022-09-29T02:43:17.410Z,12.90
2022-09-29T02:48:36.127Z,12.40
2022-09-29T02:53:56.977Z,12.10
2022-09-29T02:59:08.183Z,13.07
2022-09-29T03:04:10.533Z,12.77
2022-09-29T03:09:12.926Z,13.80
2022-09-29T03:14:15.448Z,12.50
2022-09-29T03:19:17.846Z,12.50
2022-09-29T03:24:20.329Z,13.47
2022-09-29T03:29:22.798Z,13.20
2022-09-29T03:34:25.448Z,12.93
2022-09-29T03:39:28.601Z,13.33
2022-09-29T03:44:30.885Z,13.67
2022-09-29T03:49:33.282Z,14.07
2022-09-29T03:54:35.594Z,13.40
2022-09-29T03:59:40.948Z,12.90
2022-09-29T04:04:46.011Z,12.40
2022-09-29T04:09:48.386Z,12.30
2022-09-29T04:14:50.697Z,16.63
2022-09-29T04:19:53.022Z,14.93
2022-09-29T04:24:56.171Z,13.50
2022-09-29T04:29:58.648Z,11.93
2022-09-29T04:35:01.348Z,12.70
2022-09-29T04:40:05.400Z,13.03
2022-09-29T04:45:08.041Z,12.07
2022-09-29T04:50:10.376Z,14.13
2022-09-29T04:55:13.107Z,13.43
2022-09-29T05:00:16.192Z,14.97
2022-09-29T05:05:18.587Z,13.87
2022-09-29T05:10:21.038Z,13.87
2022-09-29T05:15:26.118Z,13.10
2022-09-29T05:20:36.446Z,14.17
2022-09-29T05:25:43.988Z,12.27
2022-09-29T05:30:46.317Z,13.60
2022-09-29T05:35:48.883Z,12.90
2022-09-29T05:40:52.775Z,13.03
2022-09-29T05:46:03.944Z,13.27
2022-09-29T05:51:18.298Z,12.10
2022-09-29T05:56:25.848Z,12.07
2022-09-29T06:01:28.826Z,13.03
2022-09-29T06:06:31.307Z,12.67
2022-09-29T06:11:33.682Z,12.43
2022-09-29T06:16:36.079Z,12.57
2022-09-29T06:21:39.805Z,12.00
2022-09-29T06:26:42.130Z,13.23
2022-09-29T06:31:44.532Z,16.33
2022-09-29T06:37:05.740Z,13.60
2022-09-29T06:42:08.468Z,15.60
2022-09-29T06:47:11.308Z,20.80
2022-09-29T06:52:20.444Z,15.07
2022-09-29T06:57:23.546Z,16.40
2022-09-29T07:02:25.947Z,16.57
2022-09-29T07:07:28.293Z,16.97
2022-09-29T07:12:30.653Z,23.13
2022-09-29T07:17:33.002Z,22.53
2022-09-29T07:22:35.451Z,19.47
2022-09-29T07:27:37.791Z,16.53
2022-09-29T07:32:40.844Z,14.50
2022-09-29T07:37:52.169Z,15.37
2022-09-29T07:42:54.535Z,16.07
2022-09-29T07:47:57.381Z,15.10
2022-09-29T07:52:59.824Z,15.07
2022-09-29T07:58:02.827Z,15.17
2022-09-29T08:03:07.617Z,13.27
2022-09-29T08:08:09.977Z,12.30
2022-09-29T08:13:12.373Z,14.90
2022-09-29T08:18:14.758Z,15.07
2022-09-29T08:23:17.131Z,14.13
2022-09-29T08:28:29.328Z,14.23
2022-09-29T08:33:45.116Z,13.37
2022-09-29T08:38:51.583Z,15.53
2022-09-29T08:44:34.306Z,14.13
2022-09-29T08:49:55.748Z,13.07
2022-09-29T08:55:33.090Z,14.60
2022-09-29T09:00:42.613Z,15.30
2022-09-29T09:06:22.047Z,13.70
2022-09-29T09:11:52.722Z,14.97
2022-09-29T09:17:22.337Z,12.17
2022-09-29T09:22:51.752Z,14.63
2022-09-29T09:28:39.987Z,19.73
2022-09-29T09:34:00.463Z,13.83
2022-09-29T09:39:25.444Z,16.13
2022-09-29T09:44:34.925Z,13.43
2022-09-29T09:49:43.486Z,14.50
2022-09-29T09:54:53.311Z,14.73
2022-09-29T10:00:16.726Z,13.70
2022-09-29T10:05:26.373Z,15.50
2022-09-29T10:10:30.351Z,15.97
2022-09-29T10:15:55.891Z,14.63
2022-09-29T10:20:58.301Z,15.30
2022-09-29T10:26:03.019Z,15.70
2022-09-29T10:31:23.560Z,17.57
2022-09-29T10:36:29.144Z,16.10
2022-09-29T10:41:53.389Z,14.83
2022-09-29T10:46:57.617Z,16.27
2022-09-29T10:52:25.611Z,14.37
2022-09-29T10:57:30.741Z,13.60
2022-09-29T11:02:38.657Z,12.33
2022-09-29T11:07:46.274Z,10.77
2022-09-29T11:12:50.147Z,12.13
2022-09-29T11:17:53.100Z,11.20
2022-09-29T11:23:44.623Z,11.60
2022-09-29T11:29:16.286Z,13.10
2022-09-29T11:34:52.202Z,11.80
2022-09-29T11:40:03.249Z,11.37
2022-09-29T11:45:11.318Z,12.40
2022-09-29T11:50:27.752Z,11.47
2022-09-29T11:56:06.396Z,7.53
2022-09-29T12:01:17.390Z,9.80
2022-09-29T12:06:37.956Z,9.40
2022-09-29T12:12:19.006Z,9.27
2022-09-29T12:17:18.971Z,8.93
2022-09-29T12:22:21.752Z,10.80
2022-09-29T12:27:35.227Z,8.87
2022-09-29T12:32:58.803Z,6.80
2022-09-29T12:38:16.169Z,11.43
2022-09-29T12:43:48.160Z,10.47
2022-09-29T12:49:30.224Z,5.93
2022-09-29T12:54:42.106Z,6.33
2022-09-29T13:00:00.165Z,5.60
2022-09-29T13:05:29.503Z,6.13
2022-09-29T13:10:52.564Z,6.67
2022-09-29T13:16:35.125Z,6.80
2022-09-29T13:22:15.754Z,5.17
2022-09-29T13:27:20.740Z,7.33
2022-09-29T13:32:23.931Z,8.50
2022-09-29T13:37:31.417Z,6.00
2022-09-29T13:42:47.865Z,5.77
2022-09-29T13:47:52.633Z,11.70
2022-09-29T13:52:55.548Z,10.13
2022-09-29T13:57:57.954Z,6.07
2022-09-29T14:03:23.215Z,14.53
2022-09-29T14:08:29.899Z,32.60
2022-09-29T14:13:45.555Z,13.47
2022-09-29T14:19:07.589Z,8.80
2022-09-29T14:24:49.637Z,7.17
2022-09-29T14:30:03.761Z,21.27
2022-09-29T14:35:30.788Z,14.17
2022-09-29T14:40:33.345Z,10.53
2022-09-29T14:46:20.441Z,25.93
2022-09-29T14:51:52.884Z,8.47
2022-09-29T14:57:37.522Z,8.77
2022-09-29T15:02:44.679Z,7.73
2022-09-29T15:07:47.144Z,7.00
2022-09-29T15:12:50.591Z,6.00
2022-09-29T15:18:01.374Z,11.97
2022-09-29T15:23:20.101Z,13.60
2022-09-29T15:28:31.903Z,17.87
2022-09-29T15:33:41.085Z,14.97
2022-09-29T15:38:43.531Z,9.47
2022-09-29T15:43:57.219Z,19.50
2022-09-29T15:49:18.008Z,37.53
2022-09-29T15:54:20.498Z,26.23
2022-09-29T15:59:39.528Z,28.67
2022-09-29T16:04:44.308Z,31.50
2022-09-29T16:09:46.860Z,63.53
2022-09-29T16:14:55.185Z,61.20
2022-09-29T16:20:00.134Z,26.27
2022-09-29T16:25:25.550Z,13.33
2022-09-29T16:30:43.360Z,13.67
2022-09-29T16:35:54.837Z,20.13
2022-09-29T16:40:57.333Z,21.70
2022-09-29T16:46:02.431Z,20.30
2022-09-29T16:51:37.667Z,24.57
2022-09-29T16:56:36.788Z,28.50
2022-09-29T17:01:41.779Z,30.57
2022-09-29T17:06:48.337Z,49.07
2022-09-29T17:11:50.819Z,54.13
2022-09-29T17:16:53.322Z,114.40
2022-09-29T17:21:56.488Z,49.70
2022-09-29T17:27:17.458Z,33.43
2022-09-29T17:32:27.068Z,64.57
2022-09-29T17:37:29.511Z,127.00
2022-09-29T17:42:31.880Z,69.83
2022-09-29T17:47:37.305Z,161.80
2022-09-29T17:52:40.493Z,188.10
2022-09-29T17:57:43.547Z,142.97
2022-09-29T18:02:46.592Z,95.53
2022-09-29T18:07:50.320Z,94.07
2022-09-29T18:12:53.088Z,98.43
2022-09-29T18:17:58.187Z,95.13
2022-09-29T18:23:00.606Z,100.33
2022-09-29T18:28:03.700Z,100.90
2022-09-29T18:33:12.794Z,104.77
2022-09-29T18:38:15.092Z,99.83
2022-09-29T18:43:17.412Z,99.77
2022-09-29T18:48:19.786Z,107.53
2022-09-29T18:53:23.160Z,108.40
2022-09-29T18:58:25.548Z,91.70
2022-09-29T19:03:29.486Z,84.57
2022-09-29T19:08:33.145Z,83.43
2022-09-29T19:13:35.428Z,85.70
2022-09-29T19:18:37.766Z,63.73
2022-09-29T19:23:46.629Z,62.53
2022-09-29T19:28:49.126Z,72.70
2022-09-29T19:33:51.597Z,88.10
2022-09-29T19:38:54.093Z,92.80
2022-09-29T19:43:56.418Z,95.37
2022-09-29T19:48:58.933Z,120.83
2022-09-29T19:54:27.051Z,120.77
2022-09-29T19:59:32.325Z,130.47
2022-09-29T20:04:36.034Z,132.47
2022-09-29T20:09:38.676Z,131.67
2022-09-29T20:14:41.059Z,122.77
2022-09-29T20:19:45.634Z,117.97
2022-09-29T20:24:48.146Z,116.70
2022-09-29T20:29:50.531Z,104.53
2022-09-29T20:34:52.849Z,100.97
2022-09-29T20:39:56.062Z,95.40
2022-09-29T20:44:59.813Z,92.87
2022-09-29T20:50:05.483Z,84.97
2022-09-29T20:55:08.328Z,82.30
2022-09-29T21:00:13.203Z,83.90
2022-09-29T21:05:15.819Z,82.40
2022-09-29T21:10:18.651Z,75.00
2022-09-29T21:15:20.978Z,81.93
2022-09-29T21:20:25.802Z,83.80
2022-09-29T21:25:28.698Z,83.40
2022-09-29T21:30:31.104Z,82.03
2022-09-29T21:35:33.637Z,83.47
2022-09-29T21:40:36.756Z,81.77
2022-09-29T21:45:39.144Z,81.07
2022-09-29T21:50:41.458Z,82.63
2022-09-29T21:55:43.807Z,79.87
2022-09-29T22:00:47.722Z,81.10
2022-09-29T22:05:50.889Z,88.50
2022-09-29T22:10:54.566Z,101.17
2022-09-29T22:16:10.027Z,98.27
2022-09-29T22:21:15.034Z,105.50
2022-09-29T22:26:17.722Z,103.37
2022-09-29T22:31:20.779Z,95.60
2022-09-29T22:36:24.444Z,87.53
2022-09-29T22:41:26.841Z,92.17
2022-09-29T22:46:30.814Z,94.90
2022-09-29T22:51:33.293Z,78.63
2022-09-29T22:56:35.609Z,76.73
2022-09-29T23:01:38.010Z,72.73
2022-09-29T23:06:40.664Z,69.97
2022-09-29T23:11:42.985Z,66.27
2022-09-29T23:16:45.451Z,67.03
2022-09-29T23:21:47.958Z,68.33
2022-09-29T23:26:51.599Z,69.13
2022-09-29T23:31:54.089Z,65.27
2022-09-29T23:36:57.325Z,61.40
2022-09-29T23:42:00.126Z,55.40
2022-09-29T23:47:03.052Z,52.90
2022-09-29T23:52:05.428Z,56.20
2022-09-29T23:57:07.806Z,59.93
